Terminal Aerodrome Forecast
Issued by NWS

Home | Current Version | Previous Version | Text Only | Print | Product List | Glossary Off
Versions: 1 2 3 4 5 6 7 8 9 10 11 12 13 14 15 16 17 18 19 20 21 22 23 24 25 26

471
FTUS43 KICT 260228 AAA
TAFSLN
TAF AMD
KSLN 260228Z 2602/2624 34008KT P6SM SCT150
     FM260500 VRB05KT P6SM SKC
     FM261000 14007KT P6SM OVC010
      TEMPO 2610/2614 OVC008
     FM261600 14009KT P6SM SCT025 SCT150
     FM262200 17015G22KT P6SM VCTS SCT040CB BKN100=

USA.gov is the U.S. government's official web portal to all federal, state and local government web resources and services.